sensor_id;sensor_type;location;lat;lon;timestamp;pressure;altitude;pressure_sealevel;temperature;humidity
55068;BME280;40965;52.368;9.712;2022-10-18T00:02:12;101877.50;;;15.57;100.00
55068;BME280;40965;52.368;9.712;2022-10-18T00:04:39;101879.25;;;15.57;100.00
55068;BME280;40965;52.368;9.712;2022-10-18T00:07:05;101872.25;;;15.54;100.00
55068;BME280;40965;52.368;9.712;2022-10-18T00:09:32;101865.22;;;15.53;100.00
55068;BME280;40965;52.368;9.712;2022-10-18T00:11:58;101874.00;;;15.52;100.00
55068;BME280;40965;52.368;9.712;2022-10-18T00:14:25;101874.03;;;15.50;100.00
55068;BME280;40965;52.368;9.712;2022-10-18T00:16:52;101871.41;;;15.47;100.00
55068;BME280;40965;52.368;9.712;2022-10-18T00:19:18;101874.06;;;15.46;100.00
55068;BME280;40965;52.368;9.712;2022-10-18T00:21:45;101880.22;;;15.45;100.00
55068;BME280;40965;52.368;9.712;2022-10-18T00:24:11;101874.13;;;15.43;100.00
55068;BME280;40965;52.368;9.712;2022-10-18T00:26:37;101886.41;;;15.42;100.00
55068;BME280;40965;52.368;9.712;2022-10-18T00:29:04;101887.31;;;15.39;100.00
55068;BME280;40965;52.368;9.712;2022-10-18T00:31:34;101889.97;;;15.38;100.00
55068;BME280;40965;52.368;9.712;2022-10-18T00:34:08;101892.63;;;15.36;100.00
55068;BME280;40965;52.368;9.712;2022-10-18T00:36:37;101881.25;;;15.34;100.00
55068;BME280;40965;52.368;9.712;2022-10-18T00:39:04;101885.63;;;15.34;100.00
55068;BME280;40965;52.368;9.712;2022-10-18T00:41:33;101897.94;;;15.33;100.00
55068;BME280;40965;52.368;9.712;2022-10-18T00:44:58;101892.66;;;15.33;100.00
55068;BME280;40965;52.368;9.712;2022-10-18T00:46:57;101900.59;;;15.32;100.00
55068;BME280;40965;52.368;9.712;2022-10-18T00:49:29;101892.69;;;15.30;100.00
55068;BME280;40965;52.368;9.712;2022-10-18T00:52:01;101903.25;;;15.32;100.00
55068;BME280;40965;52.368;9.712;2022-10-18T00:54:34;101894.44;;;15.31;100.00
55068;BME280;40965;52.368;9.712;2022-10-18T00:57:04;101902.34;;;15.31;100.00
55068;BME280;40965;52.368;9.712;2022-10-18T00:59:31;101906.75;;;15.31;100.00
55068;BME280;40965;52.368;9.712;2022-10-18T01:01:58;101905.00;;;15.31;100.00
55068;BME280;40965;52.368;9.712;2022-10-18T01:04:24;101901.50;;;15.29;100.00
55068;BME280;40965;52.368;9.712;2022-10-18T01:07:14;101903.25;;;15.29;100.00
55068;BME280;40965;52.368;9.712;2022-10-18T01:13:17;101900.63;;;15.27;100.00
55068;BME280;40965;52.368;9.712;2022-10-18T01:16:21;101901.50;;;15.26;100.00
55068;BME280;40965;52.368;9.712;2022-10-18T01:19:25;101904.16;;;15.26;100.00
55068;BME280;40965;52.368;9.712;2022-10-18T01:22:36;101909.41;;;15.28;100.00
55068;BME280;40965;52.368;9.712;2022-10-18T01:31:33;101900.59;;;15.33;100.00
55068;BME280;40965;52.368;9.712;2022-10-18T01:34:06;101891.78;;;15.33;100.00
55068;BME280;40965;52.368;9.712;2022-10-18T01:36:36;101883.00;;;15.32;100.00
55068;BME280;40965;52.368;9.712;2022-10-18T01:39:14;101869.81;;;15.31;100.00
55068;BME280;40965;52.368;9.712;2022-10-18T01:41:44;101876.03;;;15.27;100.00
55068;BME280;40965;52.368;9.712;2022-10-18T01:44:16;101875.16;;;15.23;100.00
55068;BME280;40965;52.368;9.712;2022-10-18T01:46:46;101869.03;;;15.19;100.00
55068;BME280;40965;52.368;9.712;2022-10-18T01:49:13;101865.53;;;15.16;100.00
55068;BME280;40965;52.368;9.712;2022-10-18T01:51:39;101868.19;;;15.14;100.00
55068;BME280;40965;52.368;9.712;2022-10-18T01:54:06;101867.31;;;15.15;100.00
55068;BME280;40965;52.368;9.712;2022-10-18T01:56:42;101867.34;;;15.14;100.00
55068;BME280;40965;52.368;9.712;2022-10-18T01:59:34;101864.72;;;15.09;100.00
55068;BME280;40965;52.368;9.712;2022-10-18T02:02:44;101861.25;;;15.04;100.00
55068;BME280;40965;52.368;9.712;2022-10-18T02:05:27;101865.66;;;15.00;100.00
55068;BME280;40965;52.368;9.712;2022-10-18T02:08:07;101872.75;;;14.97;100.00
55068;BME280;40965;52.368;9.712;2022-10-18T02:11:07;101861.28;;;14.98;100.00
55068;BME280;40965;52.368;9.712;2022-10-18T02:13:39;101851.63;;;15.00;100.00
55068;BME280;40965;52.368;9.712;2022-10-18T02:16:13;101860.38;;;15.05;100.00
55068;BME280;40965;52.368;9.712;2022-10-18T02:18:51;101857.72;;;15.07;100.00
55068;BME280;40965;52.368;9.712;2022-10-18T02:21:21;101855.97;;;15.05;100.00
55068;BME280;40965;52.368;9.712;2022-10-18T02:23:48;101856.84;;;15.03;100.00
55068;BME280;40965;52.368;9.712;2022-10-18T02:26:15;101860.41;;;15.00;100.00
55068;BME280;40965;52.368;9.712;2022-10-18T02:28:42;101864.84;;;14.97;100.00
55068;BME280;40965;52.368;9.712;2022-10-18T02:34:19;101849.94;;;14.91;100.00
55068;BME280;40965;52.368;9.712;2022-10-18T02:36:57;101856.09;;;14.88;100.00
55068;BME280;40965;52.368;9.712;2022-10-18T02:39:32;101847.34;;;14.83;100.00
55068;BME280;40965;52.368;9.712;2022-10-18T02:42:00;101851.78;;;14.80;100.00
55068;BME280;40965;52.368;9.712;2022-10-18T02:44:30;101850.94;;;14.75;100.00
55068;BME280;40965;52.368;9.712;2022-10-18T02:47:00;101848.28;;;14.73;100.00
55068;BME280;40965;52.368;9.712;2022-10-18T02:49:27;101856.22;;;14.75;100.00
55068;BME280;40965;52.368;9.712;2022-10-18T02:51:54;101857.03;;;14.78;100.00
55068;BME280;40965;52.368;9.712;2022-10-18T02:54:20;101846.50;;;14.81;100.00
55068;BME280;40965;52.368;9.712;2022-10-18T02:56:48;101843.00;;;14.82;100.00
55068;BME280;40965;52.368;9.712;2022-10-18T02:59:14;101847.38;;;14.82;100.00
55068;BME280;40965;52.368;9.712;2022-10-18T03:01:41;101839.44;;;14.83;100.00
55068;BME280;40965;52.368;9.712;2022-10-18T03:04:08;101832.44;;;14.82;100.00
55068;BME280;40965;52.368;9.712;2022-10-18T03:06:34;101831.53;;;14.82;100.00
55068;BME280;40965;52.368;9.712;2022-10-18T03:09:03;101832.44;;;14.79;100.00
55068;BME280;40965;52.368;9.712;2022-10-18T03:11:30;101840.38;;;14.78;100.00
55068;BME280;40965;52.368;9.712;2022-10-18T03:13:57;101845.66;;;14.76;100.00
55068;BME280;40965;52.368;9.712;2022-10-18T03:16:23;101847.41;;;14.76;100.00
55068;BME280;40965;52.368;9.712;2022-10-18T03:18:50;101849.19;;;14.75;100.00
55068;BME280;40965;52.368;9.712;2022-10-18T03:21:17;101850.94;;;14.75;100.00
55068;BME280;40965;52.368;9.712;2022-10-18T03:23:43;101846.56;;;14.74;100.00
55068;BME280;40965;52.368;9.712;2022-10-18T03:26:10;101840.38;;;14.73;100.00
55068;BME280;40965;52.368;9.712;2022-10-18T03:28:36;101831.63;;;14.72;100.00
55068;BME280;40965;52.368;9.712;2022-10-18T03:31:03;101840.41;;;14.71;100.00
55068;BME280;40965;52.368;9.712;2022-10-18T03:33:31;101842.19;;;14.71;100.00
55068;BME280;40965;52.368;9.712;2022-10-18T03:35:58;101836.94;;;14.69;100.00
55068;BME280;40965;52.368;9.712;2022-10-18T03:38:25;101833.41;;;14.67;100.00
55068;BME280;40965;52.368;9.712;2022-10-18T03:40:52;101829.91;;;14.67;100.00
55068;BME280;40965;52.368;9.712;2022-10-18T03:43:18;101832.53;;;14.68;100.00
55068;BME280;40965;52.368;9.712;2022-10-18T03:45:45;101823.75;;;14.66;100.00
55068;BME280;40965;52.368;9.712;2022-10-18T03:48:11;101828.19;;;14.64;100.00
55068;BME280;40965;52.368;9.712;2022-10-18T03:50:38;101826.41;;;14.62;100.00
55068;BME280;40965;52.368;9.712;2022-10-18T03:53:04;101826.41;;;14.60;100.00
55068;BME280;40965;52.368;9.712;2022-10-18T03:55:31;101819.41;;;14.59;100.00
55068;BME280;40965;52.368;9.712;2022-10-18T03:57:57;101816.75;;;14.56;100.00
55068;BME280;40965;52.368;9.712;2022-10-18T04:00:24;101815.91;;;14.55;100.00
55068;BME280;40965;52.368;9.712;2022-10-18T04:02:51;101811.53;;;14.53;100.00
55068;BME280;40965;52.368;9.712;2022-10-18T04:05:18;101812.41;;;14.52;100.00
55068;BME280;40965;52.368;9.712;2022-10-18T04:07:44;101815.06;;;14.50;100.00
55068;BME280;40965;52.368;9.712;2022-10-18T04:10:11;101815.06;;;14.49;100.00
55068;BME280;40965;52.368;9.712;2022-10-18T04:12:37;101817.69;;;14.49;100.00
55068;BME280;40965;52.368;9.712;2022-10-18T04:15:05;101821.22;;;14.46;100.00
55068;BME280;40965;52.368;9.712;2022-10-18T04:17:32;101822.09;;;14.45;100.00
55068;BME280;40965;52.368;9.712;2022-10-18T04:20:02;101821.25;;;14.45;100.00
55068;BME280;40965;52.368;9.712;2022-10-18T04:22:31;101839.69;;;14.43;100.00
55068;BME280;40965;52.368;9.712;2022-10-18T04:24:57;101828.28;;;14.43;100.00
55068;BME280;40965;52.368;9.712;2022-10-18T04:27:24;101825.63;;;14.43;100.00
55068;BME280;40965;52.368;9.712;2022-10-18T04:29:51;101832.66;;;14.44;100.00
55068;BME280;40965;52.368;9.712;2022-10-18T04:32:17;101835.28;;;14.44;100.00
55068;BME280;40965;52.368;9.712;2022-10-18T04:34:43;101822.13;;;14.44;100.00
55068;BME280;40965;52.368;9.712;2022-10-18T04:37:10;101826.50;;;14.42;100.00
55068;BME280;40965;52.368;9.712;2022-10-18T04:39:38;101828.31;;;14.39;100.00
55068;BME280;40965;52.368;9.712;2022-10-18T04:42:05;101825.66;;;14.39;100.00
55068;BME280;40965;52.368;9.712;2022-10-18T04:44:31;101825.69;;;14.38;100.00
55068;BME280;40965;52.368;9.712;2022-10-18T04:46:58;101825.66;;;14.36;100.00
55068;BME280;40965;52.368;9.712;2022-10-18T04:49:24;101823.94;;;14.35;100.00
55068;BME280;40965;52.368;9.712;2022-10-18T04:51:51;101825.69;;;14.35;100.00
55068;BME280;40965;52.368;9.712;2022-10-18T04:54:18;101823.94;;;14.34;100.00
55068;BME280;40965;52.368;9.712;2022-10-18T04:56:44;101827.47;;;14.33;100.00
55068;BME280;40965;52.368;9.712;2022-10-18T04:59:11;101831.84;;;14.32;100.00
55068;BME280;40965;52.368;9.712;2022-10-18T05:01:37;101834.47;;;14.32;100.00
55068;BME280;40965;52.368;9.712;2022-10-18T05:04:04;101823.06;;;14.32;100.00
55068;BME280;40965;52.368;9.712;2022-10-18T05:06:30;101836.25;;;14.32;100.00
55068;BME280;40965;52.368;9.712;2022-10-18T05:08:57;101837.16;;;14.28;100.00
55068;BME280;40965;52.368;9.712;2022-10-18T05:11:23;101841.53;;;14.30;100.00
55068;BME280;40965;52.368;9.712;2022-10-18T05:13:50;101836.25;;;14.32;100.00
55068;BME280;40965;52.368;9.712;2022-10-18T05:16:17;101830.97;;;14.32;100.00
55068;BME280;40965;52.368;9.712;2022-10-18T05:18:43;101833.63;;;14.30;100.00
55068;BME280;40965;52.368;9.712;2022-10-18T05:21:10;101845.03;;;14.29;100.00
55068;BME280;40965;52.368;9.712;2022-10-18T05:23:40;101844.16;;;14.32;100.00
55068;BME280;40965;52.368;9.712;2022-10-18T05:26:07;101849.41;;;14.33;100.00
55068;BME280;40965;52.368;9.712;2022-10-18T05:28:34;101844.13;;;14.35;100.00
55068;BME280;40965;52.368;9.712;2022-10-18T05:31:05;101850.28;;;14.37;100.00
55068;BME280;40965;52.368;9.712;2022-10-18T05:33:33;101846.75;;;14.36;100.00
55068;BME280;40965;52.368;9.712;2022-10-18T05:36:00;101852.00;;;14.36;100.00
55068;BME280;40965;52.368;9.712;2022-10-18T05:38:27;101850.25;;;14.34;100.00
55068;BME280;40965;52.368;9.712;2022-10-18T05:40:55;101850.28;;;14.32;100.00
55068;BME280;40965;52.368;9.712;2022-10-18T05:43:22;101852.06;;;14.30;100.00
55068;BME280;40965;52.368;9.712;2022-10-18T05:45:49;101840.66;;;14.28;100.00
55068;BME280;40965;52.368;9.712;2022-10-18T05:48:17;101851.19;;;14.28;100.00
55068;BME280;40965;52.368;9.712;2022-10-18T05:50:43;101848.56;;;14.28;100.00
55068;BME280;40965;52.368;9.712;2022-10-18T05:53:10;101849.44;;;14.27;100.00
55068;BME280;40965;52.368;9.712;2022-10-18T05:55:37;101854.72;;;14.26;100.00
55068;BME280;40965;52.368;9.712;2022-10-18T05:58:03;101853.84;;;14.25;100.00
55068;BME280;40965;52.368;9.712;2022-10-18T06:00:30;101864.38;;;14.25;100.00
55068;BME280;40965;52.368;9.712;2022-10-18T06:02:56;101869.63;;;14.23;100.00
55068;BME280;40965;52.368;9.712;2022-10-18T06:05:23;101867.88;;;14.26;100.00
55068;BME280;40965;52.368;9.712;2022-10-18T06:07:49;101871.38;;;14.26;100.00
55068;BME280;40965;52.368;9.712;2022-10-18T06:10:16;101870.50;;;14.26;100.00
55068;BME280;40965;52.368;9.712;2022-10-18T06:12:42;101863.47;;;14.26;100.00
55068;BME280;40965;52.368;9.712;2022-10-18T06:15:09;101869.66;;;14.25;100.00
55068;BME280;40965;52.368;9.712;2022-10-18T06:17:35;101876.63;;;14.26;100.00
55068;BME280;40965;52.368;9.712;2022-10-18T06:20:02;101877.53;;;14.27;100.00
55068;BME280;40965;52.368;9.712;2022-10-18T06:22:29;101882.81;;;14.27;100.00
55068;BME280;40965;52.368;9.712;2022-10-18T06:24:56;101887.19;;;14.29;100.00
55068;BME280;40965;52.368;9.712;2022-10-18T06:27:22;101893.31;;;14.30;100.00
55068;BME280;40965;52.368;9.712;2022-10-18T06:29:49;101898.59;;;14.33;100.00
55068;BME280;40965;52.368;9.712;2022-10-18T06:32:15;101890.66;;;14.36;100.00
55068;BME280;40965;52.368;9.712;2022-10-18T06:34:42;101895.06;;;14.37;100.00
55068;BME280;40965;52.368;9.712;2022-10-18T06:37:09;101894.19;;;14.38;100.00
55068;BME280;40965;52.368;9.712;2022-10-18T06:39:35;101895.94;;;14.36;100.00
55068;BME280;40965;52.368;9.712;2022-10-18T06:42:02;101895.06;;;14.37;100.00
55068;BME280;40965;52.368;9.712;2022-10-18T06:44:28;101891.53;;;14.38;100.00
55068;BME280;40965;52.368;9.712;2022-10-18T06:46:55;101900.28;;;14.40;100.00
55068;BME280;40965;52.368;9.712;2022-10-18T06:49:22;101902.06;;;14.41;100.00
55068;BME280;40965;52.368;9.712;2022-10-18T06:51:48;101907.31;;;14.43;100.00
55068;BME280;40965;52.368;9.712;2022-10-18T06:54:15;101904.66;;;14.43;100.00
55068;BME280;40965;52.368;9.712;2022-10-18T06:56:41;101905.53;;;14.46;100.00
55068;BME280;40965;52.368;9.712;2022-10-18T06:59:08;101905.53;;;14.46;100.00
55068;BME280;40965;52.368;9.712;2022-10-18T07:01:35;101910.78;;;14.48;100.00
55068;BME280;40965;52.368;9.712;2022-10-18T07:04:01;101909.03;;;14.47;100.00
55068;BME280;40965;52.368;9.712;2022-10-18T07:06:28;101909.03;;;14.47;100.00
55068;BME280;40965;52.368;9.712;2022-10-18T07:08:55;101907.28;;;14.47;100.00
55068;BME280;40965;52.368;9.712;2022-10-18T07:11:24;101910.78;;;14.49;100.00
55068;BME280;40965;52.368;9.712;2022-10-18T07:13:53;101912.53;;;14.52;100.00
55068;BME280;40965;52.368;9.712;2022-10-18T07:16:24;101907.25;;;14.56;100.00
55068;BME280;40965;52.368;9.712;2022-10-18T07:18:51;101907.22;;;14.63;100.00
55068;BME280;40965;52.368;9.712;2022-10-18T07:21:22;101908.09;;;14.66;100.00
55068;BME280;40965;52.368;9.712;2022-10-18T07:23:50;101901.91;;;14.70;100.00
55068;BME280;40965;52.368;9.712;2022-10-18T07:26:25;101899.28;;;14.74;100.00
55068;BME280;40965;52.368;9.712;2022-10-18T07:28:57;101899.22;;;14.78;100.00
55068;BME280;40965;52.368;9.712;2022-10-18T07:31:26;101900.97;;;14.81;100.00
55068;BME280;40965;52.368;9.712;2022-10-18T07:33:55;101910.63;;;14.85;100.00
55068;BME280;40965;52.368;9.712;2022-10-18T07:36:21;101902.69;;;14.86;100.00
55068;BME280;40965;52.368;9.712;2022-10-18T07:38:52;101907.06;;;14.92;100.00
55068;BME280;40965;52.368;9.712;2022-10-18T07:41:19;101906.19;;;14.92;100.00
55068;BME280;40965;52.368;9.712;2022-10-18T07:43:48;101899.94;;;15.00;100.00
55068;BME280;40965;52.368;9.712;2022-10-18T07:46:17;101889.38;;;15.07;100.00
55068;BME280;40965;52.368;9.712;2022-10-18T07:48:44;101888.44;;;15.11;100.00
55068;BME280;40965;52.368;9.712;2022-10-18T07:51:11;101896.31;;;15.17;100.00
55068;BME280;40965;52.368;9.712;2022-10-18T07:53:38;101902.41;;;15.24;100.00
55068;BME280;40965;52.368;9.712;2022-10-18T07:56:08;101907.66;;;15.30;100.00
55068;BME280;40965;52.368;9.712;2022-10-18T07:58:43;101901.41;;;15.38;100.00
55068;BME280;40965;52.368;9.712;2022-10-18T08:01:11;101902.16;;;15.53;100.00
55068;BME280;40965;52.368;9.712;2022-10-18T08:03:39;101908.13;;;15.74;100.00
55068;BME280;40965;52.368;9.712;2022-10-18T08:06:07;101916.72;;;15.93;100.00
55068;BME280;40965;52.368;9.712;2022-10-18T08:08:36;101909.41;;;16.16;100.00
55068;BME280;40965;52.368;9.712;2022-10-18T08:11:06;101916.16;;;16.41;100.00
55068;BME280;40965;52.368;9.712;2022-10-18T08:13:37;101922.13;;;16.57;100.00
55068;BME280;40965;52.368;9.712;2022-10-18T08:16:06;101924.63;;;16.66;100.00
55068;BME280;40965;52.368;9.712;2022-10-18T08:18:35;101902.53;;;16.72;100.00
55068;BME280;40965;52.368;9.712;2022-10-18T08:21:07;101897.94;;;16.84;100.00
55068;BME280;40965;52.368;9.712;2022-10-18T08:23:35;101903.84;;;17.03;100.00
55068;BME280;40965;52.368;9.712;2022-10-18T08:26:07;101902.09;;;17.01;100.00
55068;BME280;40965;52.368;9.712;2022-10-18T08:28:35;101902.13;;;16.99;100.00
55068;BME280;40965;52.368;9.712;2022-10-18T08:31:03;101908.34;;;16.97;100.00
55068;BME280;40965;52.368;9.712;2022-10-18T08:33:31;101898.81;;;16.85;100.00
55068;BME280;40965;52.368;9.712;2022-10-18T08:36:01;101907.06;;;16.62;100.00
55068;BME280;40965;52.368;9.712;2022-10-18T08:38:30;101909.06;;;16.46;100.00
55068;BME280;40965;52.368;9.712;2022-10-18T08:44:19;101912.94;;;16.17;100.00
55068;BME280;40965;52.368;9.712;2022-10-18T08:46:51;101925.34;;;16.12;100.00
55068;BME280;40965;52.368;9.712;2022-10-18T08:49:24;101916.63;;;16.05;100.00
55068;BME280;40965;52.368;9.712;2022-10-18T08:51:54;101924.56;;;16.00;100.00
55068;BME280;40965;52.368;9.712;2022-10-18T08:54:32;101927.31;;;15.93;100.00
55068;BME280;40965;52.368;9.712;2022-10-18T08:57:04;101924.72;;;15.86;100.00
55068;BME280;40965;52.368;9.712;2022-10-18T08:59:39;101927.41;;;15.83;100.00
55068;BME280;40965;52.368;9.712;2022-10-18T09:08:29;101940.38;;;16.05;100.00
55068;BME280;40965;52.368;9.712;2022-10-18T09:13:58;101948.28;;;16.07;100.00
55068;BME280;40965;52.368;9.712;2022-10-18T09:25:49;101954.41;;;16.12;100.00
55068;BME280;40965;52.368;9.712;2022-10-18T09:28:43;101946.41;;;16.16;100.00
55068;BME280;40965;52.368;9.712;2022-10-18T09:31:31;101952.56;;;16.17;100.00
55068;BME280;40965;52.368;9.712;2022-10-18T09:34:20;101960.38;;;16.26;100.00
55068;BME280;40965;52.368;9.712;2022-10-18T09:36:53;101961.09;;;16.41;100.00
55068;BME280;40965;52.368;9.712;2022-10-18T09:39:31;101963.47;;;16.61;100.00
55068;BME280;40965;52.368;9.712;2022-10-18T09:42:23;101967.75;;;16.73;100.00
55068;BME280;40965;52.368;9.712;2022-10-18T09:45:15;101959.72;;;16.79;100.00
55068;BME280;40965;52.368;9.712;2022-10-18T09:48:06;101964.00;;;16.87;100.00
55068;BME280;40965;52.368;9.712;2022-10-18T09:50:44;101959.50;;;16.97;100.00
55068;BME280;40965;52.368;9.712;2022-10-18T09:53:42;101966.31;;;17.12;100.00
55068;BME280;40965;52.368;9.712;2022-10-18T09:56:23;101964.63;;;17.08;100.00
55068;BME280;40965;52.368;9.712;2022-10-18T09:58:51;101965.53;;;17.06;100.00
55068;BME280;40965;52.368;9.712;2022-10-18T10:01:25;101967.34;;;17.02;100.00
55068;BME280;40965;52.368;9.712;2022-10-18T10:03:52;101967.28;;;17.05;100.00
55068;BME280;40965;52.368;9.712;2022-10-18T10:06:31;101975.16;;;17.11;98.66
55068;BME280;40965;52.368;9.712;2022-10-18T10:09:14;101973.03;;;17.33;99.13
55068;BME280;40965;52.368;9.712;2022-10-18T10:11:48;101959.44;;;17.57;96.98
55068;BME280;40965;52.368;9.712;2022-10-18T10:14:20;101969.66;;;17.78;95.21
55068;BME280;40965;52.368;9.712;2022-10-18T10:17:05;101968.59;;;17.89;93.73
55068;BME280;40965;52.368;9.712;2022-10-18T10:20:04;101968.84;;;17.72;93.51
55068;BME280;40965;52.368;9.712;2022-10-18T10:22:41;101981.41;;;17.62;92.89
55068;BME280;40965;52.368;9.712;2022-10-18T10:25:27;101972.47;;;17.67;93.21
55068;BME280;40965;52.368;9.712;2022-10-18T10:28:02;101975.59;;;17.93;92.13
55068;BME280;40965;52.368;9.712;2022-10-18T10:30:34;101973.94;;;18.32;90.35
55068;BME280;40965;52.368;9.712;2022-10-18T10:33:02;101978.75;;;18.56;87.07
55068;BME280;40965;52.368;9.712;2022-10-18T10:37:59;101980.72;;;18.90;86.10
55068;BME280;40965;52.368;9.712;2022-10-18T10:40:32;101979.94;;;18.83;86.20
55068;BME280;40965;52.368;9.712;2022-10-18T10:48:50;101965.53;;;18.10;89.20
55068;BME280;40965;52.368;9.712;2022-10-18T10:51:28;101971.09;;;17.96;88.59
55068;BME280;40965;52.368;9.712;2022-10-18T10:57:12;101968.19;;;17.60;89.10
55068;BME280;40965;52.368;9.712;2022-10-18T10:59:51;101974.72;;;17.39;89.85
55068;BME280;40965;52.368;9.712;2022-10-18T11:02:29;101979.47;;;17.70;87.94
55068;BME280;40965;52.368;9.712;2022-10-18T11:05:21;101970.16;;;18.00;85.80
55068;BME280;40965;52.368;9.712;2022-10-18T11:07:57;101976.19;;;18.09;84.45
55068;BME280;40965;52.368;9.712;2022-10-18T11:10:30;101976.38;;;17.98;84.86
55068;BME280;40965;52.368;9.712;2022-10-18T11:13:08;101961.59;;;17.83;84.17
55068;BME280;40965;52.368;9.712;2022-10-18T11:15:52;101962.16;;;17.50;86.35
55068;BME280;40965;52.368;9.712;2022-10-18T11:18:33;101972.09;;;17.38;87.44
55068;BME280;40965;52.368;9.712;2022-10-18T11:21:15;101965.13;;;17.32;88.15
55068;BME280;40965;52.368;9.712;2022-10-18T11:23:44;101963.53;;;17.22;88.58
55068;BME280;40965;52.368;9.712;2022-10-18T11:31:49;101959.03;;;17.27;87.96
55068;BME280;40965;52.368;9.712;2022-10-18T11:54:40;101943.38;;;17.14;83.37
55068;BME280;40965;52.368;9.712;2022-10-18T12:05:56;101947.56;;;17.28;83.43
55068;BME280;40965;52.368;9.712;2022-10-18T12:08:32;101946.53;;;17.35;79.98
55068;BME280;40965;52.368;9.712;2022-10-18T12:11:20;101938.41;;;17.47;78.12
55068;BME280;40965;52.368;9.712;2022-10-18T12:14:01;101945.56;;;17.42;78.32
55068;BME280;40965;52.368;9.712;2022-10-18T12:16:33;101947.47;;;17.34;77.25
55068;BME280;40965;52.368;9.712;2022-10-18T12:19:04;101935.19;;;17.28;77.87
55068;BME280;40965;52.368;9.712;2022-10-18T12:21:33;101946.63;;;17.30;77.33
55068;BME280;40965;52.368;9.712;2022-10-18T12:24:05;101940.25;;;17.42;76.51
55068;BME280;40965;52.368;9.712;2022-10-18T12:26:34;101934.97;;;17.42;76.28
55068;BME280;40965;52.368;9.712;2022-10-18T12:29:25;101933.22;;;17.41;76.11
55068;BME280;40965;52.368;9.712;2022-10-18T12:32:09;101930.47;;;17.47;75.67
55068;BME280;40965;52.368;9.712;2022-10-18T12:34:49;101925.25;;;17.44;75.56
55068;BME280;40965;52.368;9.712;2022-10-18T12:40:47;101926.56;;;17.68;74.07
55068;BME280;40965;52.368;9.712;2022-10-18T12:43:17;101929.09;;;17.75;72.64
55068;BME280;40965;52.368;9.712;2022-10-18T12:45:52;101923.84;;;17.72;72.58
55068;BME280;40965;52.368;9.712;2022-10-18T12:48:32;101913.09;;;17.79;68.60
55068;BME280;40965;52.368;9.712;2022-10-18T12:53:45;101927.56;;;17.63;69.59
55068;BME280;40965;52.368;9.712;2022-10-18T13:15:02;101931.84;;;17.18;61.49
55068;BME280;40965;52.368;9.712;2022-10-18T13:17:38;101931.91;;;17.12;62.10
55068;BME280;40965;52.368;9.712;2022-10-18T13:30:57;101941.75;;;17.04;60.55
55068;BME280;40965;52.368;9.712;2022-10-18T13:33:40;101945.78;;;17.28;60.92
55068;BME280;40965;52.368;9.712;2022-10-18T13:38:47;101943.13;;;19.08;57.78
55068;BME280;40965;52.368;9.712;2022-10-18T13:42:31;101935.97;;;19.82;55.27
55068;BME280;40965;52.368;9.712;2022-10-18T13:49:46;101951.47;;;19.65;55.86
55068;BME280;40965;52.368;9.712;2022-10-18T13:52:31;101944.28;;;19.34;57.62
55068;BME280;40965;52.368;9.712;2022-10-18T13:58:12;101956.41;;;18.67;60.19
55068;BME280;40965;52.368;9.712;2022-10-18T14:01:17;101950.81;;;18.39;61.00
55068;BME280;40965;52.368;9.712;2022-10-18T14:04:14;101960.00;;;18.21;61.62
55068;BME280;40965;52.368;9.712;2022-10-18T14:06:46;101962.19;;;18.02;60.47
55068;BME280;40965;52.368;9.712;2022-10-18T14:09:22;101967.72;;;17.86;58.50
55068;BME280;40965;52.368;9.712;2022-10-18T14:11:52;101963.59;;;17.70;57.57
55068;BME280;40965;52.368;9.712;2022-10-18T14:15:24;101961.28;;;17.51;56.12
55068;BME280;40965;52.368;9.712;2022-10-18T14:17:39;101971.31;;;17.31;57.26
55068;BME280;40965;52.368;9.712;2022-10-18T14:20:15;101975.06;;;17.17;58.23
55068;BME280;40965;52.368;9.712;2022-10-18T14:23:00;101973.47;;;17.06;59.67
55068;BME280;40965;52.368;9.712;2022-10-18T14:25:35;101971.81;;;16.98;60.44
55068;BME280;40965;52.368;9.712;2022-10-18T14:28:14;101982.50;;;16.91;60.69
55068;BME280;40965;52.368;9.712;2022-10-18T14:30:56;101977.28;;;16.84;61.23
55068;BME280;40965;52.368;9.712;2022-10-18T14:33:26;101978.19;;;16.80;60.18
55068;BME280;40965;52.368;9.712;2022-10-18T14:36:05;101984.44;;;16.75;60.93
55068;BME280;40965;52.368;9.712;2022-10-18T14:38:34;101981.00;;;16.69;61.05
55068;BME280;40965;52.368;9.712;2022-10-18T14:41:22;101979.28;;;16.65;60.57
55068;BME280;40965;52.368;9.712;2022-10-18T14:43:51;101981.09;;;16.62;60.41
55068;BME280;40965;52.368;9.712;2022-10-18T14:46:21;101985.56;;;16.57;60.45
55068;BME280;40965;52.368;9.712;2022-10-18T14:51:19;101986.66;;;16.40;60.85
55068;BME280;40965;52.368;9.712;2022-10-18T14:53:47;101981.47;;;16.31;60.39
55068;BME280;40965;52.368;9.712;2022-10-18T14:56:25;101985.09;;;16.22;59.74
55068;BME280;40965;52.368;9.712;2022-10-18T14:58:56;101990.44;;;16.16;60.02
55068;BME280;40965;52.368;9.712;2022-10-18T15:01:27;101987.03;;;16.08;60.09
55068;BME280;40965;52.368;9.712;2022-10-18T15:03:57;101987.97;;;15.99;60.08
55068;BME280;40965;52.368;9.712;2022-10-18T15:06:26;101986.28;;;15.92;60.00
55068;BME280;40965;52.368;9.712;2022-10-18T15:08:56;101986.34;;;15.87;59.25
55068;BME280;40965;52.368;9.712;2022-10-18T15:11:24;101982.00;;;15.81;59.59
55068;BME280;40965;52.368;9.712;2022-10-18T15:13:57;101979.38;;;15.77;58.98
55068;BME280;40965;52.368;9.712;2022-10-18T15:16:31;101994.38;;;15.70;59.51
55068;BME280;40965;52.368;9.712;2022-10-18T15:18:59;101978.66;;;15.59;59.91